createdAt,value
2018-05-02T00:01:14.091Z,48.86
2018-05-02T00:03:42.646Z,49.01
2018-05-02T00:06:11.207Z,49.21
2018-05-02T00:08:39.768Z,49.29
2018-05-02T00:11:08.129Z,49.42
2018-05-02T00:13:36.700Z,49.55
2018-05-02T00:16:06.045Z,49.98
2018-05-02T00:18:34.602Z,50.28
2018-05-02T00:21:03.188Z,50.61
2018-05-02T00:23:31.741Z,50.91
2018-05-02T00:26:00.285Z,51.26
2018-05-02T00:28:28.849Z,51.48
2018-05-02T00:30:57.440Z,51.77
2018-05-02T00:33:25.995Z,52.08
2018-05-02T00:35:54.552Z,52.42
2018-05-02T00:38:23.109Z,52.62
2018-05-02T00:40:52.485Z,52.50
2018-05-02T00:43:20.827Z,52.67
2018-05-02T00:45:49.384Z,52.74
2018-05-02T00:48:17.996Z,52.76
2018-05-02T00:50:46.557Z,52.45
2018-05-02T00:53:15.111Z,52.21
2018-05-02T00:55:43.659Z,52.44
2018-05-02T00:58:11.981Z,52.83
2018-05-02T01:00:40.585Z,52.44
2018-05-02T01:03:09.148Z,52.95
2018-05-02T01:05:37.743Z,54.18
2018-05-02T01:08:06.071Z,54.69
2018-05-02T01:10:34.675Z,55.21
2018-05-02T01:13:03.270Z,55.68
2018-05-02T01:15:32.027Z,55.94
2018-05-02T01:18:00.627Z,55.99
2018-05-02T01:20:29.174Z,56.11
2018-05-02T01:22:57.759Z,56.14
2018-05-02T01:25:26.028Z,56.33
2018-05-02T01:27:54.623Z,56.39
2018-05-02T01:30:23.215Z,56.70
2018-05-02T01:32:51.774Z,56.81
2018-05-02T01:35:20.324Z,56.99
2018-05-02T01:37:48.871Z,56.05
2018-05-02T01:40:17.428Z,57.18
2018-05-02T01:42:46.029Z,57.22
2018-05-02T01:45:14.587Z,57.62
2018-05-02T01:47:43.182Z,58.16
2018-05-02T01:50:11.730Z,58.53
2018-05-02T01:52:40.278Z,58.36
2018-05-02T01:55:08.876Z,58.46
2018-05-02T01:57:37.437Z,58.68
2018-05-02T02:00:06.298Z,58.63
2018-05-02T02:02:34.859Z,58.72
2018-05-02T02:05:03.451Z,58.88
2018-05-02T02:07:31.433Z,59.19
2018-05-02T02:09:59.995Z,59.36
2018-05-02T02:12:28.260Z,59.68
2018-05-02T02:14:56.611Z,59.89
2018-05-02T02:17:25.166Z,59.97
2018-05-02T02:19:53.730Z,59.66
2018-05-02T02:22:22.295Z,59.45
2018-05-02T02:24:50.856Z,59.00
2018-05-02T02:27:19.451Z,59.15
2018-05-02T02:29:48.011Z,59.81
2018-05-02T02:32:16.595Z,60.37
2018-05-02T02:34:45.792Z,60.67
2018-05-02T02:37:14.409Z,61.19
2018-05-02T02:39:42.983Z,61.45
2018-05-02T02:42:11.545Z,61.50
2018-05-02T02:44:40.125Z,61.65
2018-05-02T02:47:08.727Z,61.63
2018-05-02T02:49:37.279Z,61.56
2018-05-02T02:52:05.832Z,60.94
2018-05-02T02:54:34.217Z,61.42
2018-05-02T02:57:02.791Z,61.59
2018-05-02T02:59:31.344Z,61.68
2018-05-02T03:01:59.906Z,61.79
2018-05-02T03:04:28.476Z,62.16
2018-05-02T03:06:57.039Z,62.32
2018-05-02T03:09:25.617Z,62.35
2018-05-02T03:11:54.223Z,62.42
2018-05-02T03:14:22.816Z,62.62
2018-05-02T03:16:51.445Z,62.24
2018-05-02T03:19:20.032Z,62.38
2018-05-02T03:21:48.642Z,62.57
2018-05-02T03:24:17.220Z,62.55
2018-05-02T03:26:45.829Z,62.48
2018-05-02T03:29:14.435Z,62.44
2018-05-02T03:31:43.108Z,62.58
2018-05-02T03:34:11.673Z,62.55
2018-05-02T03:36:40.285Z,62.55
2018-05-02T03:39:08.855Z,62.38
2018-05-02T03:41:37.425Z,62.70
2018-05-02T03:44:06.018Z,62.43
2018-05-02T03:46:34.592Z,62.40
2018-05-02T03:49:03.192Z,62.07
2018-05-02T03:51:31.745Z,62.21
2018-05-02T03:54:00.347Z,62.35
2018-05-02T03:56:28.896Z,61.84
2018-05-02T03:58:57.452Z,61.95
2018-05-02T04:01:37.151Z,62.03
2018-05-02T04:04:16.847Z,61.96
2018-05-02T04:09:53.715Z,61.96
2018-05-02T04:12:22.079Z,61.97
2018-05-02T04:14:50.642Z,61.57
2018-05-02T04:17:19.235Z,61.37
2018-05-02T04:19:47.812Z,60.76
2018-05-02T04:22:16.375Z,59.79
2018-05-02T04:24:44.985Z,59.17
2018-05-02T04:27:13.552Z,59.34
2018-05-02T04:29:42.186Z,59.40
2018-05-02T04:32:10.955Z,58.08
2018-05-02T04:34:39.536Z,55.94
2018-05-02T04:37:08.099Z,53.12
2018-05-02T04:39:36.699Z,49.80
2018-05-02T04:42:05.291Z,47.38
2018-05-02T04:44:33.886Z,45.43
2018-05-02T04:47:02.200Z,44.22
2018-05-02T04:49:30.811Z,42.03
2018-05-02T04:51:59.385Z,41.07
2018-05-02T04:54:27.959Z,39.60
2018-05-02T04:56:56.520Z,38.86
2018-05-02T04:59:25.100Z,38.62
2018-05-02T05:01:53.866Z,38.43
2018-05-02T05:04:22.417Z,38.07
2018-05-02T05:06:50.988Z,37.01
2018-05-02T05:09:19.539Z,36.56
2018-05-02T05:11:48.157Z,36.25
2018-05-02T05:14:16.391Z,36.13
2018-05-02T05:16:44.943Z,36.76
2018-05-02T05:19:13.499Z,36.54
2018-05-02T05:21:42.173Z,38.04
2018-05-02T05:24:11.461Z,38.73
2018-05-02T05:26:40.025Z,39.55
2018-05-02T05:29:08.629Z,40.38
2018-05-02T05:31:37.179Z,41.08
2018-05-02T05:34:05.407Z,41.94
2018-05-02T05:36:33.958Z,41.87
2018-05-02T05:39:03.152Z,42.73
2018-05-02T05:41:31.765Z,43.52
2018-05-02T05:44:00.324Z,43.27
2018-05-02T05:46:28.915Z,43.60
2018-05-02T05:48:57.479Z,43.97
2018-05-02T05:51:26.038Z,44.63
2018-05-02T05:53:54.678Z,44.90
2018-05-02T05:56:23.397Z,44.22
2018-05-02T05:58:51.994Z,44.85
2018-05-02T06:01:20.596Z,44.09
2018-05-02T06:03:49.229Z,44.83
2018-05-02T06:06:17.846Z,44.67
2018-05-02T06:08:46.412Z,44.24
2018-05-02T06:11:14.990Z,44.65
2018-05-02T06:13:43.567Z,44.92
2018-05-02T06:16:12.124Z,45.33
2018-05-02T06:18:40.710Z,45.60
2018-05-02T06:21:09.455Z,45.55
2018-05-02T06:23:38.031Z,45.53
2018-05-02T06:26:06.649Z,46.14
2018-05-02T06:28:35.348Z,45.60
2018-05-02T06:31:03.977Z,45.86
2018-05-02T06:33:32.595Z,46.01
2018-05-02T06:36:01.169Z,45.99
2018-05-02T06:38:29.727Z,45.95
2018-05-02T06:40:58.302Z,45.79
2018-05-02T06:43:26.916Z,45.64
2018-05-02T06:45:55.677Z,45.50
2018-05-02T06:48:24.087Z,45.44
2018-05-02T06:50:52.704Z,45.32
2018-05-02T06:53:21.275Z,45.38
2018-05-02T06:55:49.648Z,45.33
2018-05-02T06:58:18.209Z,44.95
2018-05-02T07:00:46.578Z,44.47
2018-05-02T07:03:15.136Z,44.10
2018-05-02T07:05:43.835Z,44.40
2018-05-02T07:08:12.394Z,44.42
2018-05-02T07:10:41.307Z,44.90
2018-05-02T07:13:09.933Z,44.24
2018-05-02T07:15:38.536Z,44.20
2018-05-02T07:18:07.153Z,44.52
2018-05-02T07:20:35.758Z,44.01
2018-05-02T07:23:04.354Z,44.01
2018-05-02T07:25:32.919Z,43.61
2018-05-02T07:28:01.533Z,43.46
2018-05-02T07:30:30.160Z,43.61
2018-05-02T07:32:58.849Z,44.13
2018-05-02T07:35:27.603Z,43.83
2018-05-02T07:37:56.171Z,43.64
2018-05-02T07:40:24.775Z,43.53
2018-05-02T07:42:53.527Z,43.67
2018-05-02T07:45:22.132Z,43.54
2018-05-02T07:47:50.730Z,43.45
2018-05-02T07:50:19.296Z,43.38
2018-05-02T07:52:47.872Z,43.17
2018-05-02T07:55:16.510Z,43.22
2018-05-02T07:57:45.127Z,43.37
2018-05-02T08:00:13.799Z,42.67
2018-05-02T08:02:42.377Z,42.96
2018-05-02T08:05:11.184Z,42.83
2018-05-02T08:07:39.794Z,42.59
2018-05-02T08:10:08.428Z,42.57
2018-05-02T08:12:37.088Z,41.30
2018-05-02T08:15:04.972Z,41.32
2018-05-02T08:17:33.535Z,41.21
2018-05-02T08:20:02.124Z,40.84
2018-05-02T08:22:30.695Z,41.19
2018-05-02T08:25:00.412Z,39.57
2018-05-02T08:27:30.967Z,39.73
2018-05-02T08:29:59.935Z,39.62
2018-05-02T08:32:28.500Z,38.52
2018-05-02T08:34:57.092Z,38.07
2018-05-02T08:37:25.668Z,38.61
2018-05-02T08:39:54.235Z,37.68
2018-05-02T08:42:22.802Z,37.13
2018-05-02T08:44:51.379Z,35.73
2018-05-02T08:47:19.935Z,36.31
2018-05-02T08:49:48.516Z,36.27
2018-05-02T08:52:17.277Z,35.65
2018-05-02T08:54:45.846Z,32.71
2018-05-02T08:57:14.427Z,32.36
2018-05-02T08:59:42.987Z,31.50
2018-05-02T09:02:11.543Z,31.59
2018-05-02T09:04:40.103Z,30.85
2018-05-02T09:07:08.662Z,31.07
2018-05-02T09:09:37.228Z,30.88
2018-05-02T09:12:05.830Z,31.30
2018-05-02T09:14:34.374Z,30.86
2018-05-02T09:17:02.931Z,29.54
2018-05-02T09:19:31.486Z,29.16
2018-05-02T09:22:00.068Z,29.79
2018-05-02T09:24:28.646Z,30.18
2018-05-02T09:26:57.234Z,30.45
2018-05-02T09:29:25.799Z,30.45
2018-05-02T09:31:54.367Z,30.60
2018-05-02T09:34:23.120Z,30.68
2018-05-02T09:36:51.685Z,31.25
2018-05-02T09:39:20.253Z,31.65
2018-05-02T09:41:48.811Z,31.42
2018-05-02T09:44:17.439Z,31.56
2018-05-02T09:46:45.999Z,31.24
2018-05-02T09:49:14.581Z,30.95
2018-05-02T09:51:43.156Z,30.52
2018-05-02T09:54:11.744Z,30.10
2018-05-02T09:56:40.343Z,28.89
2018-05-02T09:59:08.916Z,27.71
2018-05-02T10:01:37.463Z,28.69
2018-05-02T10:04:06.032Z,29.70
2018-05-02T10:06:34.593Z,29.94
2018-05-02T10:09:03.163Z,30.32
2018-05-02T10:11:31.763Z,30.71
2018-05-02T10:14:00.397Z,29.88
2018-05-02T10:16:28.981Z,29.70
2018-05-02T10:18:57.617Z,29.34
2018-05-02T10:21:26.223Z,29.38
2018-05-02T10:23:54.793Z,30.15
2018-05-02T10:26:23.423Z,29.28
2018-05-02T10:28:52.197Z,29.30
2018-05-02T10:31:20.793Z,28.88
2018-05-02T10:33:49.405Z,28.90
2018-05-02T10:36:17.981Z,29.55
2018-05-02T10:38:46.562Z,28.99
2018-05-02T10:41:15.135Z,29.36
2018-05-02T10:43:43.694Z,29.14
2018-05-02T10:46:12.266Z,29.27
2018-05-02T10:48:40.917Z,28.33
2018-05-02T10:51:09.523Z,27.30
2018-05-02T10:53:38.163Z,27.48
2018-05-02T10:56:06.770Z,27.64
2018-05-02T10:58:35.944Z,27.82
2018-05-02T11:01:04.205Z,27.56
2018-05-02T11:03:32.911Z,27.73
2018-05-02T11:06:01.149Z,27.30
2018-05-02T11:08:30.571Z,27.03
2018-05-02T11:10:59.185Z,26.13
2018-05-02T11:13:27.783Z,25.46
2018-05-02T11:15:57.707Z,25.48
2018-05-02T11:18:26.328Z,25.37
2018-05-02T11:20:54.907Z,24.86
2018-05-02T11:23:23.478Z,24.01
2018-05-02T11:25:52.033Z,22.76
2018-05-02T11:28:20.715Z,22.18
2018-05-02T11:30:49.449Z,22.31
2018-05-02T11:33:18.050Z,22.27
2018-05-02T11:35:47.441Z,23.13
2018-05-02T11:38:16.052Z,24.20
2018-05-02T11:40:44.642Z,24.60
2018-05-02T11:43:13.204Z,23.91
2018-05-02T11:45:42.279Z,24.24
2018-05-02T11:48:10.900Z,25.11
2018-05-02T11:50:39.460Z,25.03
2018-05-02T11:53:08.015Z,24.45
2018-05-02T11:55:36.596Z,24.93
2018-05-02T11:58:05.226Z,24.80
2018-05-02T12:00:33.832Z,25.30
2018-05-02T12:03:02.432Z,24.68
2018-05-02T12:05:31.014Z,24.03
2018-05-02T12:07:59.588Z,23.99
2018-05-02T12:10:28.162Z,24.18
2018-05-02T12:12:56.748Z,24.95
2018-05-02T12:15:25.357Z,24.14
2018-05-02T12:17:53.924Z,23.97
2018-05-02T12:20:22.477Z,24.33
2018-05-02T12:22:51.077Z,24.70
2018-05-02T12:25:19.631Z,24.07
2018-05-02T12:27:48.264Z,25.48
2018-05-02T12:30:17.024Z,25.78
2018-05-02T12:32:45.644Z,23.81
2018-05-02T12:35:14.199Z,23.50
2018-05-02T12:37:42.758Z,23.71
2018-05-02T12:40:11.307Z,23.49
2018-05-02T12:42:39.862Z,23.85
2018-05-02T12:45:08.451Z,23.80
2018-05-02T12:47:37.056Z,23.92
2018-05-02T12:50:05.618Z,24.75
2018-05-02T12:52:34.197Z,24.98
2018-05-02T12:55:02.760Z,24.09
2018-05-02T12:57:31.318Z,23.87
2018-05-02T12:59:59.925Z,23.63
2018-05-02T13:02:28.519Z,23.75
2018-05-02T13:04:57.236Z,23.30
2018-05-02T13:07:25.800Z,22.45
2018-05-02T13:09:54.421Z,22.54
2018-05-02T13:12:23.008Z,22.19
2018-05-02T13:14:51.577Z,21.80
2018-05-02T13:17:20.134Z,21.93
2018-05-02T13:19:52.519Z,22.08
2018-05-02T13:22:21.188Z,21.87
2018-05-02T13:24:49.967Z,20.94
2018-05-02T13:27:19.072Z,20.20
2018-05-02T13:29:47.615Z,20.70
2018-05-02T13:32:16.167Z,20.37
2018-05-02T13:34:44.757Z,20.40
2018-05-02T13:37:13.317Z,21.04
2018-05-02T13:39:41.871Z,20.92
2018-05-02T13:42:10.471Z,21.10
2018-05-02T13:44:39.082Z,20.95
2018-05-02T13:47:07.645Z,20.75
2018-05-02T13:49:36.203Z,19.94
2018-05-02T13:52:04.759Z,20.41
2018-05-02T13:54:33.616Z,21.05
2018-05-02T13:57:02.194Z,22.00
2018-05-02T13:59:30.828Z,22.52
2018-05-02T14:01:59.396Z,22.78
2018-05-02T14:04:29.020Z,22.82
2018-05-02T14:06:57.576Z,22.78
2018-05-02T14:09:26.173Z,23.25
2018-05-02T14:11:54.825Z,23.54
2018-05-02T14:14:23.474Z,23.90
2018-05-02T14:16:52.049Z,24.45
2018-05-02T14:19:20.604Z,24.73
2018-05-02T14:21:49.188Z,25.14
2018-05-02T14:24:17.754Z,25.85
2018-05-02T14:26:46.426Z,26.33
2018-05-02T14:29:14.985Z,26.44
2018-05-02T14:31:43.547Z,26.52
2018-05-02T14:34:12.098Z,26.60
2018-05-02T14:36:40.665Z,26.05
2018-05-02T14:39:09.234Z,26.13
2018-05-02T14:41:37.788Z,26.03
2018-05-02T14:44:06.413Z,26.09
2018-05-02T14:46:34.969Z,26.13
2018-05-02T14:49:03.199Z,25.61
2018-05-02T14:51:31.776Z,25.63
2018-05-02T14:54:00.366Z,25.19
2018-05-02T14:56:28.936Z,25.51
2018-05-02T14:58:57.528Z,24.56
2018-05-02T15:01:26.172Z,23.71
2018-05-02T15:03:54.860Z,22.39
2018-05-02T15:06:23.412Z,22.59
2018-05-02T15:08:51.973Z,20.53
2018-05-02T15:11:20.549Z,19.61
2018-05-02T15:13:49.132Z,19.78
2018-05-02T15:16:17.684Z,19.87
2018-05-02T15:18:46.255Z,18.73
2018-05-02T15:21:14.888Z,17.77
2018-05-02T15:23:43.457Z,17.33
2018-05-02T15:26:12.059Z,17.36
2018-05-02T15:28:40.640Z,17.62
2018-05-02T15:31:09.238Z,18.17
2018-05-02T15:33:37.825Z,18.97
2018-05-02T15:36:06.439Z,19.61
2018-05-02T15:38:34.994Z,20.02
2018-05-02T15:41:03.568Z,20.47
2018-05-02T15:43:32.155Z,20.77
2018-05-02T15:46:00.723Z,21.20
2018-05-02T15:48:29.293Z,20.66
2018-05-02T15:50:57.854Z,20.74
2018-05-02T15:53:26.411Z,20.94
2018-05-02T15:55:55.035Z,21.00
2018-05-02T15:58:23.788Z,21.22
2018-05-02T16:00:52.472Z,21.27
2018-05-02T16:03:21.037Z,20.59
2018-05-02T16:05:49.619Z,20.61
2018-05-02T16:08:18.165Z,20.75
2018-05-02T16:10:46.799Z,20.45
2018-05-02T16:13:16.155Z,20.15
2018-05-02T16:15:44.703Z,19.96
2018-05-02T16:18:13.265Z,20.01
2018-05-02T16:20:41.887Z,20.14
2018-05-02T16:23:10.449Z,19.63
2018-05-02T16:25:39.864Z,19.29
2018-05-02T16:28:08.644Z,19.60
2018-05-02T16:30:37.284Z,19.80
2018-05-02T16:33:05.839Z,21.11
2018-05-02T16:35:34.827Z,22.09
2018-05-02T16:38:03.455Z,21.79
2018-05-02T16:40:33.150Z,20.19
2018-05-02T16:43:01.855Z,21.22
2018-05-02T16:45:30.470Z,21.94
2018-05-02T16:48:00.346Z,22.66
2018-05-02T16:50:29.034Z,23.39
2018-05-02T16:52:57.585Z,23.96
2018-05-02T16:55:26.190Z,24.30
2018-05-02T16:57:54.807Z,25.01
2018-05-02T17:00:23.390Z,25.12
2018-05-02T17:02:51.988Z,25.20
2018-05-02T17:05:20.544Z,25.36
2018-05-02T17:07:48.853Z,25.24
2018-05-02T17:10:17.549Z,24.90
2018-05-02T17:12:46.139Z,24.82
2018-05-02T17:15:14.694Z,24.23
2018-05-02T17:17:43.364Z,23.97
2018-05-02T17:20:12.061Z,23.72
2018-05-02T17:22:40.889Z,24.09
2018-05-02T17:25:09.471Z,24.57
2018-05-02T17:27:38.032Z,24.11
2018-05-02T17:30:06.644Z,24.57
2018-05-02T17:32:35.409Z,25.33
2018-05-02T17:35:03.881Z,26.47
2018-05-02T17:37:32.655Z,27.95
2018-05-02T17:40:01.231Z,29.55
2018-05-02T17:42:29.794Z,30.54
2018-05-02T17:44:58.382Z,31.56
2018-05-02T17:47:26.945Z,31.83
2018-05-02T17:49:55.586Z,32.34
2018-05-02T17:52:24.153Z,32.57
2018-05-02T17:54:52.727Z,32.92
2018-05-02T17:57:22.104Z,33.41
2018-05-02T17:59:50.776Z,33.75
2018-05-02T18:02:19.372Z,34.05
2018-05-02T18:04:47.953Z,34.21
2018-05-02T18:07:16.519Z,34.41
2018-05-02T18:09:45.136Z,34.66
2018-05-02T18:12:13.700Z,34.87
2018-05-02T18:14:42.327Z,35.33
2018-05-02T18:17:10.877Z,35.65
2018-05-02T18:19:39.513Z,35.80
2018-05-02T18:22:08.073Z,35.90
2018-05-02T18:24:36.673Z,35.98
2018-05-02T18:27:05.928Z,36.10
2018-05-02T18:29:34.521Z,36.14
2018-05-02T18:32:03.088Z,35.86
2018-05-02T18:34:31.707Z,35.89
2018-05-02T18:37:05.132Z,35.77
2018-05-02T18:39:39.653Z,35.85
2018-05-02T18:42:08.332Z,35.53
2018-05-02T18:44:36.900Z,35.63
2018-05-02T18:47:05.694Z,35.71
2018-05-02T18:49:34.232Z,36.03
2018-05-02T18:52:02.851Z,36.09
2018-05-02T18:54:31.495Z,36.20
2018-05-02T18:57:00.137Z,36.30
2018-05-02T18:59:28.858Z,36.41
2018-05-02T19:01:57.488Z,36.55
2018-05-02T19:04:26.095Z,36.69
2018-05-02T19:06:54.711Z,36.78
2018-05-02T19:09:23.263Z,37.12
2018-05-02T19:11:51.834Z,37.35
2018-05-02T19:14:20.391Z,37.55
2018-05-02T19:16:49.112Z,37.66
2018-05-02T19:19:22.990Z,37.55
2018-05-02T19:21:51.587Z,37.27
2018-05-02T19:24:20.846Z,37.25
2018-05-02T19:26:49.420Z,36.95
2018-05-02T19:29:17.990Z,36.96
2018-05-02T19:31:52.024Z,36.87
2018-05-02T19:34:20.611Z,36.97
2018-05-02T19:36:49.214Z,37.14
2018-05-02T19:39:17.778Z,37.44
2018-05-02T19:41:51.701Z,37.80
2018-05-02T19:44:20.338Z,38.66
2018-05-02T19:46:49.388Z,37.93
2018-05-02T19:49:17.956Z,37.77
2018-05-02T19:51:51.794Z,37.29
2018-05-02T19:54:20.358Z,37.41
2018-05-02T19:56:49.476Z,37.56
2018-05-02T19:59:18.027Z,37.71
2018-05-02T20:01:51.942Z,37.82
2018-05-02T20:04:20.499Z,37.99
2018-05-02T20:06:49.067Z,38.15
2018-05-02T20:09:23.182Z,38.31
2018-05-02T20:14:56.842Z,38.57
2018-05-02T20:17:25.431Z,38.58
2018-05-02T20:19:54.000Z,38.46
2018-05-02T20:22:22.575Z,38.72
2018-05-02T20:24:51.179Z,38.63
2018-05-02T20:27:19.760Z,38.69
2018-05-02T20:29:48.360Z,38.77
2018-05-02T20:32:16.949Z,38.71
2018-05-02T20:34:45.519Z,38.48
2018-05-02T20:37:15.015Z,38.05
2018-05-02T20:39:43.612Z,37.66
2018-05-02T20:42:12.222Z,37.38
2018-05-02T20:44:40.794Z,37.32
2018-05-02T20:47:09.046Z,37.30
2018-05-02T20:49:37.595Z,37.33
2018-05-02T20:52:06.185Z,37.49
2018-05-02T20:54:34.755Z,37.71
2018-05-02T20:57:03.329Z,38.05
2018-05-02T20:59:31.913Z,38.18
2018-05-02T21:02:00.486Z,38.51
2018-05-02T21:04:29.060Z,38.75
2018-05-02T21:06:57.613Z,39.09
2018-05-02T21:09:26.164Z,39.26
2018-05-02T21:11:54.775Z,39.55
2018-05-02T21:14:23.344Z,39.85
2018-05-02T21:16:52.100Z,39.99
2018-05-02T21:19:20.664Z,40.30
2018-05-02T21:21:49.222Z,40.48
2018-05-02T21:24:17.783Z,40.67
2018-05-02T21:26:46.355Z,40.83
2018-05-02T21:29:14.922Z,41.19
2018-05-02T21:31:43.487Z,41.71
2018-05-02T21:34:12.039Z,42.27
2018-05-02T21:36:40.615Z,42.15
2018-05-02T21:39:09.176Z,42.90
2018-05-02T21:41:37.788Z,44.60
2018-05-02T21:44:06.339Z,45.27
2018-05-02T21:46:34.904Z,46.47
2018-05-02T21:49:03.488Z,47.20
2018-05-02T21:51:32.043Z,48.03
2018-05-02T21:54:00.605Z,48.48
2018-05-02T21:56:29.203Z,48.26
2018-05-02T21:58:57.756Z,48.62
2018-05-02T22:01:26.338Z,48.64
2018-05-02T22:03:54.895Z,48.24
2018-05-02T22:06:23.505Z,47.69
2018-05-02T22:08:52.059Z,47.23
2018-05-02T22:11:20.661Z,47.65
2018-05-02T22:13:49.227Z,48.52
2018-05-02T22:16:17.780Z,49.08
2018-05-02T22:18:46.381Z,49.24
2018-05-02T22:21:14.939Z,49.45
2018-05-02T22:23:43.495Z,49.07
2018-05-02T22:26:12.055Z,48.27
2018-05-02T22:28:40.648Z,48.02
2018-05-02T22:31:09.249Z,47.90
2018-05-02T22:33:37.817Z,48.06
2018-05-02T22:36:06.514Z,48.20
2018-05-02T22:38:35.087Z,48.20
2018-05-02T22:41:03.681Z,48.46
2018-05-02T22:43:32.243Z,49.43
2018-05-02T22:46:02.715Z,49.67
2018-05-02T22:48:31.266Z,49.95
2018-05-02T22:50:59.835Z,50.33
2018-05-02T22:53:28.388Z,50.67
2018-05-02T22:55:56.987Z,51.00
2018-05-02T22:58:25.591Z,51.12
2018-05-02T23:00:54.222Z,51.13
2018-05-02T23:03:22.774Z,51.11
2018-05-02T23:05:51.329Z,51.05
2018-05-02T23:08:19.942Z,51.03
2018-05-02T23:10:48.502Z,51.19
2018-05-02T23:13:17.065Z,51.01
2018-05-02T23:15:45.708Z,51.11
2018-05-02T23:18:14.335Z,51.34
2018-05-02T23:20:43.032Z,51.39
2018-05-02T23:23:11.587Z,51.32
2018-05-02T23:25:40.173Z,51.41
2018-05-02T23:28:08.736Z,51.61
2018-05-02T23:30:37.340Z,51.65
2018-05-02T23:33:05.910Z,51.77
2018-05-02T23:35:34.506Z,51.91
2018-05-02T23:38:03.060Z,51.91
2018-05-02T23:40:31.678Z,51.99
2018-05-02T23:43:00.241Z,52.12
2018-05-02T23:45:28.811Z,52.16
2018-05-02T23:47:57.377Z,51.79
2018-05-02T23:50:25.935Z,51.70
2018-05-02T23:52:54.542Z,51.81
2018-05-02T23:55:23.105Z,52.25
2018-05-02T23:57:51.676Z,52.35
